createdAt,value
2023-03-08T00:00:03.674Z,941.97
2023-03-08T00:00:14.665Z,941.99
2023-03-08T00:00:25.431Z,941.98
2023-03-08T00:00:36.490Z,941.97
2023-03-08T00:00:47.463Z,941.96
2023-03-08T00:00:58.210Z,941.95
2023-03-08T00:01:09.263Z,941.95
2023-03-08T00:01:20.233Z,941.95
2023-03-08T00:01:31.001Z,941.94
2023-03-08T00:01:42.051Z,941.92
2023-03-08T00:01:53.112Z,941.93
2023-03-08T00:02:03.852Z,941.93
2023-03-08T00:02:14.907Z,941.93
2023-03-08T00:02:25.887Z,941.95
2023-03-08T00:02:36.651Z,941.94
2023-03-08T00:02:47.775Z,941.93
2023-03-08T00:02:58.802Z,941.93
2023-03-08T00:03:09.557Z,941.92
2023-03-08T00:03:20.598Z,941.94
2023-03-08T00:03:31.608Z,941.93
2023-03-08T00:03:42.403Z,941.94
2023-03-08T00:03:52.974Z,941.95
2023-03-08T00:04:04.012Z,941.97
2023-03-08T00:04:14.947Z,941.97
2023-03-08T00:04:25.527Z,941.97
2023-03-08T00:04:36.510Z,941.97
2023-03-08T00:04:47.301Z,941.96
2023-03-08T00:04:58.379Z,941.97
2023-03-08T00:05:09.311Z,941.93
2023-03-08T00:05:20.078Z,941.92
2023-03-08T00:05:31.121Z,941.92
2023-03-08T00:05:42.099Z,941.92
2023-03-08T00:05:52.855Z,941.94
2023-03-08T00:06:03.907Z,941.94
2023-03-08T00:06:14.980Z,941.96
2023-03-08T00:06:25.738Z,941.96
2023-03-08T00:06:36.787Z,941.95
2023-03-08T00:06:47.767Z,941.96
2023-03-08T00:06:58.530Z,941.98
2023-03-08T00:07:09.593Z,941.99
2023-03-08T00:07:20.565Z,941.97
2023-03-08T00:07:31.342Z,941.97
2023-03-08T00:07:42.458Z,941.99
2023-03-08T00:07:53.412Z,941.99
2023-03-08T00:08:04.193Z,942.00
2023-03-08T00:08:15.342Z,941.99
2023-03-08T00:08:26.326Z,942.00
2023-03-08T00:08:37.096Z,942.01
2023-03-08T00:08:48.161Z,941.98
2023-03-08T00:08:59.141Z,941.97
2023-03-08T00:09:09.909Z,941.96
2023-03-08T00:09:20.960Z,941.98
2023-03-08T00:09:31.919Z,941.99
2023-03-08T00:09:42.688Z,942.00
2023-03-08T00:09:53.783Z,942.02
2023-03-08T00:10:04.715Z,942.01
2023-03-08T00:10:15.484Z,942.02
2023-03-08T00:10:26.528Z,942.03
2023-03-08T00:10:37.557Z,942.03
2023-03-08T00:10:48.268Z,942.03
2023-03-08T00:10:59.336Z,942.02
2023-03-08T00:11:10.292Z,942.02
2023-03-08T00:11:21.062Z,942.02
2023-03-08T00:11:32.139Z,942.02
2023-03-08T00:11:43.101Z,942.03
2023-03-08T00:11:53.900Z,942.04
2023-03-08T00:12:04.961Z,942.01
2023-03-08T00:12:15.919Z,941.99
2023-03-08T00:12:26.683Z,942.02
2023-03-08T00:12:37.840Z,942.03
2023-03-08T00:12:48.767Z,942.03
2023-03-08T00:12:59.548Z,942.05
2023-03-08T00:13:10.591Z,942.04
2023-03-08T00:13:21.564Z,942.04
2023-03-08T00:13:32.324Z,942.06
2023-03-08T00:13:43.425Z,942.07
2023-03-08T00:13:54.379Z,942.10
2023-03-08T00:14:05.150Z,942.08
2023-03-08T00:14:16.213Z,942.08
2023-03-08T00:14:27.181Z,942.09
2023-03-08T00:14:37.953Z,942.10
2023-03-08T00:14:49.005Z,942.10
2023-03-08T00:14:59.978Z,942.08
2023-03-08T00:15:10.774Z,942.09
2023-03-08T00:15:21.785Z,942.08
2023-03-08T00:15:32.802Z,942.08
2023-03-08T00:15:43.626Z,942.09
2023-03-08T00:15:54.136Z,942.11
2023-03-08T00:16:05.133Z,942.09
2023-03-08T00:16:16.077Z,942.11
2023-03-08T00:16:27.264Z,942.12
2023-03-08T00:16:37.709Z,942.11
2023-03-08T00:16:48.507Z,942.12
2023-03-08T00:16:59.546Z,942.14
2023-03-08T00:17:10.528Z,942.12
2023-03-08T00:17:21.285Z,942.11
2023-03-08T00:17:32.335Z,942.10
2023-03-08T00:17:43.310Z,942.10
2023-03-08T00:17:54.084Z,942.08
2023-03-08T00:18:05.154Z,942.10
2023-03-08T00:18:16.106Z,942.13
2023-03-08T00:18:26.869Z,942.12
2023-03-08T00:18:37.913Z,942.11
2023-03-08T00:18:48.887Z,942.10
2023-03-08T00:18:59.692Z,942.11
2023-03-08T00:19:10.748Z,942.15
2023-03-08T00:19:21.695Z,942.12
2023-03-08T00:19:32.462Z,942.11
2023-03-08T00:19:43.503Z,942.09
2023-03-08T00:19:54.470Z,942.08
2023-03-08T00:20:05.241Z,942.10
2023-03-08T00:20:16.328Z,942.11
2023-03-08T00:20:27.289Z,942.12
2023-03-08T00:20:38.041Z,942.11
2023-03-08T00:20:49.087Z,942.10
2023-03-08T00:21:00.052Z,942.09
2023-03-08T00:21:10.838Z,942.09
2023-03-08T00:21:21.898Z,942.12
2023-03-08T00:21:32.856Z,942.11
2023-03-08T00:21:43.626Z,942.08
2023-03-08T00:21:54.662Z,942.08
2023-03-08T00:22:05.648Z,942.09
2023-03-08T00:22:16.612Z,942.10
2023-03-08T00:22:27.663Z,942.11
2023-03-08T00:22:38.634Z,942.12
2023-03-08T00:22:49.415Z,942.11
2023-03-08T00:23:00.506Z,942.09
2023-03-08T00:23:11.452Z,942.09
2023-03-08T00:23:22.214Z,942.08
2023-03-08T00:23:33.272Z,942.08
2023-03-08T00:23:44.239Z,942.09
2023-03-08T00:23:55.034Z,942.13
2023-03-08T00:24:06.079Z,942.16
2023-03-08T00:24:17.026Z,942.15
2023-03-08T00:24:27.791Z,942.15
2023-03-08T00:24:38.849Z,942.16
2023-03-08T00:24:49.808Z,942.18
2023-03-08T00:25:00.575Z,942.16
2023-03-08T00:25:11.609Z,942.15
2023-03-08T00:25:22.629Z,942.17
2023-03-08T00:25:33.341Z,942.18
2023-03-08T00:25:44.421Z,942.18
2023-03-08T00:25:55.372Z,942.18
2023-03-08T00:26:06.147Z,942.17
2023-03-08T00:26:17.200Z,942.15
2023-03-08T00:26:28.173Z,942.13
2023-03-08T00:26:39.143Z,942.14
2023-03-08T00:26:50.181Z,942.16
2023-03-08T00:27:01.197Z,942.16
2023-03-08T00:27:11.958Z,942.16
2023-03-08T00:27:23.017Z,942.17
2023-03-08T00:27:33.986Z,942.16
2023-03-08T00:27:44.752Z,942.17
2023-03-08T00:27:55.812Z,942.16
2023-03-08T00:28:06.784Z,942.15
2023-03-08T00:28:17.566Z,942.14
2023-03-08T00:28:28.666Z,942.16
2023-03-08T00:28:39.620Z,942.15
2023-03-08T00:28:50.454Z,942.17
2023-03-08T00:29:01.022Z,942.17
2023-03-08T00:29:12.055Z,942.15
2023-03-08T00:29:22.851Z,942.12
2023-03-08T00:29:33.867Z,942.13
2023-03-08T00:29:44.824Z,942.14
2023-03-08T00:29:55.596Z,942.15
2023-03-08T00:30:06.714Z,942.16
2023-03-08T00:30:17.637Z,942.13
2023-03-08T00:30:28.441Z,942.12
2023-03-08T00:30:38.965Z,942.11
2023-03-08T00:30:49.926Z,942.10
2023-03-08T00:31:00.794Z,942.12
2023-03-08T00:31:11.278Z,942.13
2023-03-08T00:31:22.330Z,942.12
2023-03-08T00:31:33.045Z,942.12
2023-03-08T00:31:44.149Z,942.10
2023-03-08T00:31:55.154Z,942.11
2023-03-08T00:32:05.987Z,942.12
2023-03-08T00:32:17.146Z,942.12
2023-03-08T00:32:27.641Z,942.11
2023-03-08T00:32:38.441Z,942.12
2023-03-08T00:32:49.478Z,942.12
2023-03-08T00:33:00.468Z,942.13
2023-03-08T00:33:11.248Z,942.15
2023-03-08T00:33:22.278Z,942.14
2023-03-08T00:33:33.275Z,942.12
2023-03-08T00:33:44.133Z,942.10
2023-03-08T00:33:54.609Z,942.09
2023-03-08T00:34:05.561Z,942.08
2023-03-08T00:34:16.335Z,942.11
2023-03-08T00:34:27.388Z,942.12
2023-03-08T00:34:38.355Z,942.10
2023-03-08T00:34:49.114Z,942.11
2023-03-08T00:35:00.160Z,942.10
2023-03-08T00:35:11.213Z,942.11
2023-03-08T00:35:22.097Z,942.11
2023-03-08T00:35:32.563Z,942.11
2023-03-08T00:35:43.530Z,942.10
2023-03-08T00:35:54.324Z,942.09
2023-03-08T00:36:05.334Z,942.10
2023-03-08T00:36:16.348Z,942.10
2023-03-08T00:36:27.100Z,942.11
2023-03-08T00:36:38.161Z,942.10
2023-03-08T00:36:49.130Z,942.11
2023-03-08T00:36:59.891Z,942.10
2023-03-08T00:37:10.948Z,942.12
2023-03-08T00:37:21.908Z,942.11
2023-03-08T00:37:32.688Z,942.11
2023-03-08T00:37:43.739Z,942.11
2023-03-08T00:37:54.737Z,942.12
2023-03-08T00:38:05.486Z,942.12
2023-03-08T00:38:16.573Z,942.11
2023-03-08T00:38:27.602Z,942.12
2023-03-08T00:38:38.315Z,942.10
2023-03-08T00:38:49.362Z,942.12
2023-03-08T00:39:00.417Z,942.12
2023-03-08T00:39:11.149Z,942.14
2023-03-08T00:39:22.233Z,942.16
2023-03-08T00:39:33.185Z,942.16
2023-03-08T00:39:43.952Z,942.16
2023-03-08T00:39:55.019Z,942.16
2023-03-08T00:40:05.986Z,942.17
2023-03-08T00:40:16.768Z,942.19
2023-03-08T00:40:27.837Z,942.19
2023-03-08T00:40:38.796Z,942.20
2023-03-08T00:40:49.596Z,942.22
2023-03-08T00:41:00.621Z,942.22
2023-03-08T00:41:11.606Z,942.22
2023-03-08T00:41:22.373Z,942.21
2023-03-08T00:41:33.425Z,942.20
2023-03-08T00:41:44.403Z,942.18
2023-03-08T00:41:55.170Z,942.16
2023-03-08T00:42:06.275Z,942.16
2023-03-08T00:42:17.242Z,942.18
2023-03-08T00:42:28.007Z,942.19
2023-03-08T00:42:39.103Z,942.20
2023-03-08T00:42:50.077Z,942.20
2023-03-08T00:43:00.864Z,942.17
2023-03-08T00:43:11.927Z,942.14
2023-03-08T00:43:22.873Z,942.12
2023-03-08T00:43:33.642Z,942.10
2023-03-08T00:43:44.683Z,942.11
2023-03-08T00:43:55.660Z,942.11
2023-03-08T00:44:06.490Z,942.09
2023-03-08T00:44:17.535Z,942.10
2023-03-08T00:44:28.495Z,942.12
2023-03-08T00:44:39.302Z,942.11
2023-03-08T00:44:50.315Z,942.11
2023-03-08T00:45:01.292Z,942.11
2023-03-08T00:45:12.096Z,942.11
2023-03-08T00:45:23.125Z,942.11
2023-03-08T00:45:34.118Z,942.12
2023-03-08T00:45:44.982Z,942.11
2023-03-08T00:45:55.521Z,942.11
2023-03-08T00:46:06.474Z,942.13
2023-03-08T00:46:17.314Z,942.14
2023-03-08T00:46:28.388Z,942.16
2023-03-08T00:46:39.372Z,942.16
2023-03-08T00:46:50.317Z,942.12
2023-03-08T00:47:00.950Z,942.12
2023-03-08T00:47:11.350Z,942.13
2023-03-08T00:47:22.118Z,942.16
2023-03-08T00:47:33.195Z,942.16
2023-03-08T00:47:44.165Z,942.15
2023-03-08T00:47:54.934Z,942.15
2023-03-08T00:48:05.991Z,942.12
2023-03-08T00:48:17.073Z,942.14
2023-03-08T00:48:27.791Z,942.15
2023-03-08T00:48:38.841Z,942.14
2023-03-08T00:48:49.818Z,942.14
2023-03-08T00:49:00.590Z,942.14
2023-03-08T00:49:11.664Z,942.13
2023-03-08T00:49:22.676Z,942.14
2023-03-08T00:49:33.440Z,942.13
2023-03-08T00:49:44.539Z,942.10
2023-03-08T00:49:55.453Z,942.11
2023-03-08T00:50:06.216Z,942.12
2023-03-08T00:50:17.273Z,942.13
2023-03-08T00:50:28.242Z,942.13
2023-03-08T00:50:39.064Z,942.13
2023-03-08T00:50:49.594Z,942.15
2023-03-08T00:51:00.595Z,942.13
2023-03-08T00:51:11.354Z,942.13
2023-03-08T00:51:22.399Z,942.13
2023-03-08T00:51:33.368Z,942.12
2023-03-08T00:51:44.157Z,942.11
2023-03-08T00:51:55.187Z,942.13
2023-03-08T00:52:06.193Z,942.13
2023-03-08T00:52:17.011Z,942.12
2023-03-08T00:52:28.008Z,942.12
2023-03-08T00:52:38.988Z,942.12
2023-03-08T00:52:49.969Z,942.14
2023-03-08T00:53:01.014Z,942.13
2023-03-08T00:53:11.989Z,942.13
2023-03-08T00:53:22.791Z,942.16
2023-03-08T00:53:33.834Z,942.15
2023-03-08T00:53:44.818Z,942.13
2023-03-08T00:53:55.572Z,942.13
2023-03-08T00:54:06.621Z,942.12
2023-03-08T00:54:17.636Z,942.12
2023-03-08T00:54:28.416Z,942.13
2023-03-08T00:54:39.482Z,942.14
2023-03-08T00:54:50.450Z,942.13
2023-03-08T00:55:01.247Z,942.12
2023-03-08T00:55:12.268Z,942.11
2023-03-08T00:55:23.235Z,942.11
2023-03-08T00:55:34.052Z,942.10
2023-03-08T00:55:45.054Z,942.09
2023-03-08T00:55:56.052Z,942.09
2023-03-08T00:56:06.789Z,942.09
2023-03-08T00:56:17.848Z,942.12
2023-03-08T00:56:28.822Z,942.13
2023-03-08T00:56:39.604Z,942.12
2023-03-08T00:56:50.653Z,942.13
2023-03-08T00:57:01.730Z,942.12
2023-03-08T00:57:12.638Z,942.13
2023-03-08T00:57:23.706Z,942.15
2023-03-08T00:57:34.674Z,942.13
2023-03-08T00:57:45.441Z,942.12
2023-03-08T00:57:56.494Z,942.12
2023-03-08T00:58:07.486Z,942.13
2023-03-08T00:58:18.272Z,942.13
2023-03-08T00:58:29.339Z,942.14
2023-03-08T00:58:40.292Z,942.12
2023-03-08T00:58:51.060Z,942.12
2023-03-08T00:59:02.105Z,942.11
2023-03-08T00:59:13.110Z,942.09
2023-03-08T00:59:23.875Z,942.11
2023-03-08T00:59:34.966Z,942.09
2023-03-08T00:59:45.900Z,942.10
2023-03-08T00:59:56.665Z,942.09
2023-03-08T01:00:07.711Z,942.07
2023-03-08T01:00:18.678Z,942.08
2023-03-08T01:00:29.450Z,942.06
2023-03-08T01:00:40.539Z,942.07
2023-03-08T01:00:51.553Z,942.07
2023-03-08T01:01:02.347Z,942.09
2023-03-08T01:01:12.917Z,942.10
2023-03-08T01:01:23.854Z,942.09
2023-03-08T01:01:34.624Z,942.07
2023-03-08T01:01:45.667Z,942.10
2023-03-08T01:01:56.638Z,942.10
2023-03-08T01:02:07.401Z,942.10
2023-03-08T01:02:18.467Z,942.10
2023-03-08T01:02:29.455Z,942.11
2023-03-08T01:02:40.204Z,942.08
2023-03-08T01:02:51.271Z,942.07
2023-03-08T01:03:02.254Z,942.05
2023-03-08T01:03:13.053Z,942.06
2023-03-08T01:03:23.564Z,942.06
2023-03-08T01:03:34.541Z,942.08
2023-03-08T01:03:45.322Z,942.09
2023-03-08T01:03:56.408Z,942.09
2023-03-08T01:04:07.462Z,942.08
2023-03-08T01:04:18.194Z,942.09
2023-03-08T01:04:29.239Z,942.10
2023-03-08T01:04:40.203Z,942.12
2023-03-08T01:04:50.990Z,942.12
2023-03-08T01:05:02.063Z,942.10
2023-03-08T01:05:12.988Z,942.10
2023-03-08T01:05:23.777Z,942.11
2023-03-08T01:05:34.303Z,942.14
2023-03-08T01:05:45.351Z,942.10
2023-03-08T01:05:56.057Z,942.10
2023-03-08T01:06:07.114Z,942.10
2023-03-08T01:06:18.092Z,942.13
2023-03-08T01:06:28.866Z,942.14
2023-03-08T01:06:39.927Z,942.15
2023-03-08T01:06:50.914Z,942.14
2023-03-08T01:07:01.678Z,942.14
2023-03-08T01:07:12.731Z,942.15
2023-03-08T01:07:23.709Z,942.14
2023-03-08T01:07:34.464Z,942.13
2023-03-08T01:07:45.519Z,942.12
2023-03-08T01:07:56.498Z,942.12
2023-03-08T01:08:07.281Z,942.14
2023-03-08T01:08:18.362Z,942.15
2023-03-08T01:08:29.327Z,942.14
2023-03-08T01:08:40.175Z,942.14
2023-03-08T01:08:50.673Z,942.14
2023-03-08T01:09:01.638Z,942.15
2023-03-08T01:09:12.402Z,942.15
2023-03-08T01:09:23.441Z,942.14
2023-03-08T01:09:34.417Z,942.15
2023-03-08T01:09:45.226Z,942.15
2023-03-08T01:09:56.252Z,942.16
2023-03-08T01:10:07.216Z,942.16
2023-03-08T01:10:17.973Z,942.16
2023-03-08T01:10:29.033Z,942.17
2023-03-08T01:10:40.000Z,942.16
2023-03-08T01:10:50.770Z,942.16
2023-03-08T01:11:01.858Z,942.15
2023-03-08T01:11:12.801Z,942.16
2023-03-08T01:11:23.568Z,942.16
2023-03-08T01:11:34.610Z,942.15
2023-03-08T01:11:45.585Z,942.15
2023-03-08T01:11:56.378Z,942.14
2023-03-08T01:12:07.506Z,942.12
2023-03-08T01:12:18.423Z,942.11
2023-03-08T01:12:29.177Z,942.10
2023-03-08T01:12:40.230Z,942.10
2023-03-08T01:12:51.214Z,942.10
2023-03-08T01:13:02.164Z,942.11
2023-03-08T01:13:13.225Z,942.10
2023-03-08T01:13:24.235Z,942.09
2023-03-08T01:13:35.019Z,942.09
2023-03-08T01:13:46.067Z,942.10
2023-03-08T01:13:57.056Z,942.10
2023-03-08T01:14:08.043Z,942.10
2023-03-08T01:14:19.078Z,942.10
2023-03-08T01:14:30.044Z,942.11
2023-03-08T01:14:40.842Z,942.10
2023-03-08T01:14:51.358Z,942.10
2023-03-08T01:15:02.350Z,942.09
2023-03-08T01:15:13.142Z,942.06
2023-03-08T01:15:23.662Z,942.06
2023-03-08T01:15:34.618Z,942.07
2023-03-08T01:15:45.593Z,942.08
2023-03-08T01:15:56.654Z,942.09
2023-03-08T01:16:08.127Z,942.08
2023-03-08T01:16:18.339Z,942.08
2023-03-08T01:16:29.409Z,942.08
2023-03-08T01:16:40.398Z,942.09
2023-03-08T01:16:51.154Z,942.07
2023-03-08T01:17:02.194Z,942.04
2023-03-08T01:17:13.215Z,942.04
2023-03-08T01:17:24.013Z,942.05
2023-03-08T01:17:35.094Z,942.04
2023-03-08T01:17:46.049Z,942.04
2023-03-08T01:17:56.823Z,942.04
2023-03-08T01:18:07.881Z,942.05
2023-03-08T01:18:18.865Z,942.03
2023-03-08T01:18:29.627Z,942.02
2023-03-08T01:18:40.702Z,942.02
2023-03-08T01:18:51.660Z,942.01
2023-03-08T01:19:02.448Z,941.97
2023-03-08T01:19:13.494Z,941.98
2023-03-08T01:19:24.493Z,941.99
2023-03-08T01:19:35.257Z,941.98
2023-03-08T01:19:46.323Z,941.97
2023-03-08T01:19:57.280Z,941.97
2023-03-08T01:20:08.051Z,941.97
2023-03-08T01:20:19.111Z,941.97
2023-03-08T01:20:30.068Z,941.97
2023-03-08T01:20:40.832Z,941.96
2023-03-08T01:20:51.941Z,941.95
2023-03-08T01:21:02.875Z,941.94
2023-03-08T01:21:13.641Z,941.94
2023-03-08T01:21:24.707Z,941.96
2023-03-08T01:21:35.703Z,941.97
2023-03-08T01:21:46.439Z,941.92
2023-03-08T01:21:57.544Z,941.89
2023-03-08T01:22:08.508Z,941.90
2023-03-08T01:22:19.266Z,941.91
2023-03-08T01:22:30.308Z,941.91
2023-03-08T01:22:41.292Z,941.91
2023-03-08T01:22:52.093Z,941.91
2023-03-08T01:23:03.168Z,941.90
2023-03-08T01:23:14.137Z,941.91
2023-03-08T01:23:24.906Z,941.91
2023-03-08T01:23:36.018Z,941.89
2023-03-08T01:23:46.969Z,941.90
2023-03-08T01:23:57.736Z,941.91
2023-03-08T01:24:08.774Z,941.91
2023-03-08T01:24:19.756Z,941.92
2023-03-08T01:24:30.525Z,941.93
2023-03-08T01:24:41.563Z,941.94
2023-03-08T01:24:52.535Z,941.96
2023-03-08T01:25:03.317Z,941.96
2023-03-08T01:25:13.913Z,941.96
2023-03-08T01:25:24.843Z,941.96
2023-03-08T01:25:35.677Z,941.96
2023-03-08T01:25:46.688Z,941.97
2023-03-08T01:25:57.654Z,941.97
2023-03-08T01:26:08.441Z,941.96
2023-03-08T01:26:19.465Z,941.96
2023-03-08T01:26:30.432Z,941.96
2023-03-08T01:26:41.286Z,941.96
2023-03-08T01:26:51.755Z,941.94
2023-03-08T01:27:02.784Z,941.93
2023-03-08T01:27:13.689Z,941.94
2023-03-08T01:27:24.729Z,941.96
2023-03-08T01:27:35.711Z,941.97
2023-03-08T01:27:46.487Z,941.96
2023-03-08T01:27:57.540Z,941.95
2023-03-08T01:28:08.505Z,941.95
2023-03-08T01:28:19.349Z,941.96
2023-03-08T01:28:30.361Z,941.98
2023-03-08T01:28:41.325Z,941.98
2023-03-08T01:28:52.113Z,941.98
2023-03-08T01:29:03.171Z,941.99
2023-03-08T01:29:14.132Z,941.98
2023-03-08T01:29:24.899Z,942.00
2023-03-08T01:29:35.977Z,942.02
2023-03-08T01:29:46.936Z,942.04
2023-03-08T01:29:57.686Z,942.04
2023-03-08T01:30:08.791Z,942.04
2023-03-08T01:30:19.753Z,942.04
2023-03-08T01:30:30.522Z,942.06
2023-03-08T01:30:41.576Z,942.07
2023-03-08T01:30:52.542Z,942.07
2023-03-08T01:31:03.314Z,942.08
2023-03-08T01:31:14.356Z,942.08
2023-03-08T01:31:25.360Z,942.08
2023-03-08T01:31:36.097Z,942.09
2023-03-08T01:31:47.144Z,942.08
2023-03-08T01:31:58.115Z,942.07
2023-03-08T01:32:08.903Z,942.09
2023-03-08T01:32:19.962Z,942.10
2023-03-08T01:32:31.019Z,942.10
2023-03-08T01:32:41.795Z,942.10
2023-03-08T01:32:52.785Z,942.09
2023-03-08T01:33:03.754Z,942.10
2023-03-08T01:33:14.725Z,942.10
2023-03-08T01:33:25.798Z,942.12
2023-03-08T01:33:36.793Z,942.12
2023-03-08T01:33:47.541Z,942.11
2023-03-08T01:33:58.613Z,942.10
2023-03-08T01:34:09.575Z,942.10
2023-03-08T01:34:20.347Z,942.10
2023-03-08T01:34:31.395Z,942.10
2023-03-08T01:34:42.364Z,942.10
2023-03-08T01:34:53.176Z,942.09
2023-03-08T01:35:04.193Z,942.11
2023-03-08T01:35:15.164Z,942.10
2023-03-08T01:35:25.945Z,942.08
2023-03-08T01:35:37.001Z,942.11
2023-03-08T01:35:47.985Z,942.11
2023-03-08T01:35:58.816Z,942.12
2023-03-08T01:36:09.863Z,942.12
2023-03-08T01:36:20.827Z,942.11
2023-03-08T01:36:31.589Z,942.11
2023-03-08T01:36:42.650Z,942.11
2023-03-08T01:36:53.605Z,942.12
2023-03-08T01:37:04.373Z,942.12
2023-03-08T01:37:15.481Z,942.11
2023-03-08T01:37:26.387Z,942.12
2023-03-08T01:37:37.152Z,942.07
2023-03-08T01:37:48.212Z,942.08
2023-03-08T01:37:59.171Z,942.09
2023-03-08T01:38:09.952Z,942.07
2023-03-08T01:38:21.015Z,942.05
2023-03-08T01:38:32.105Z,942.05
2023-03-08T01:38:42.837Z,942.04
2023-03-08T01:38:53.900Z,942.04
2023-03-08T01:39:04.891Z,942.05
2023-03-08T01:39:15.635Z,942.05
2023-03-08T01:39:26.699Z,942.04
2023-03-08T01:39:37.672Z,942.03
2023-03-08T01:39:48.452Z,942.03
2023-03-08T01:39:59.560Z,942.06
2023-03-08T01:40:10.478Z,942.05
2023-03-08T01:40:21.263Z,942.04
2023-03-08T01:40:32.302Z,942.05
2023-03-08T01:40:43.268Z,942.05
2023-03-08T01:40:54.041Z,942.03
2023-03-08T01:41:05.143Z,942.03
2023-03-08T01:41:16.091Z,942.05
2023-03-08T01:41:26.834Z,942.06
2023-03-08T01:41:37.893Z,942.06
2023-03-08T01:41:48.888Z,942.08
2023-03-08T01:41:59.838Z,942.10
2023-03-08T01:42:10.904Z,942.09
2023-03-08T01:42:21.862Z,942.08
2023-03-08T01:42:32.629Z,942.08
2023-03-08T01:42:43.681Z,942.09
2023-03-08T01:42:54.687Z,942.11
2023-03-08T01:43:05.424Z,942.10
2023-03-08T01:43:16.475Z,942.11
2023-03-08T01:43:27.446Z,942.10
2023-03-08T01:43:38.216Z,942.10
2023-03-08T01:43:49.264Z,942.10
2023-03-08T01:44:00.282Z,942.11
2023-03-08T01:44:11.056Z,942.10
2023-03-08T01:44:22.107Z,942.10
2023-03-08T01:44:33.114Z,942.10
2023-03-08T01:44:43.866Z,942.11
2023-03-08T01:44:54.916Z,942.13
2023-03-08T01:45:05.883Z,942.14
2023-03-08T01:45:16.651Z,942.13
2023-03-08T01:45:27.722Z,942.14
2023-03-08T01:45:38.687Z,942.15
2023-03-08T01:45:49.491Z,942.16
2023-03-08T01:46:00.491Z,942.16
2023-03-08T01:46:11.476Z,942.15
2023-03-08T01:46:22.433Z,942.15
2023-03-08T01:46:33.529Z,942.15
2023-03-08T01:46:44.488Z,942.14
2023-03-08T01:46:55.255Z,942.13
2023-03-08T01:47:06.316Z,942.12
2023-03-08T01:47:17.268Z,942.14
2023-03-08T01:47:28.035Z,942.12
2023-03-08T01:47:39.076Z,942.11
2023-03-08T01:47:50.062Z,942.11
2023-03-08T01:48:00.809Z,942.11
2023-03-08T01:48:11.857Z,942.11
2023-03-08T01:48:22.825Z,942.12
2023-03-08T01:48:33.593Z,942.11
2023-03-08T01:48:44.709Z,942.11
2023-03-08T01:48:55.651Z,942.11
2023-03-08T01:49:06.815Z,942.12
2023-03-08T01:49:17.286Z,942.12
2023-03-08T01:49:28.250Z,942.10
2023-03-08T01:49:39.015Z,942.10
2023-03-08T01:49:50.068Z,942.11
2023-03-08T01:50:01.046Z,942.10
2023-03-08T01:50:11.813Z,942.09
2023-03-08T01:50:22.897Z,942.08
2023-03-08T01:50:33.844Z,942.08
2023-03-08T01:50:44.605Z,942.07
2023-03-08T01:50:55.721Z,942.08
2023-03-08T01:51:06.682Z,942.09
2023-03-08T01:51:17.456Z,942.09
2023-03-08T01:51:28.499Z,942.09
2023-03-08T01:51:39.458Z,942.08
2023-03-08T01:51:50.224Z,942.07
2023-03-08T01:52:01.288Z,942.06
2023-03-08T01:52:12.314Z,942.07
2023-03-08T01:52:23.101Z,942.07
2023-03-08T01:52:34.145Z,942.07
2023-03-08T01:52:45.107Z,942.07
2023-03-08T01:52:55.888Z,942.05
2023-03-08T01:53:06.931Z,942.06
2023-03-08T01:53:17.914Z,942.06
2023-03-08T01:53:28.668Z,942.07
2023-03-08T01:53:39.748Z,942.06
2023-03-08T01:53:50.716Z,942.06
2023-03-08T01:54:01.485Z,942.05
2023-03-08T01:54:12.526Z,942.06
2023-03-08T01:54:23.512Z,942.06
2023-03-08T01:54:34.282Z,942.03
2023-03-08T01:54:45.321Z,942.03
2023-03-08T01:54:56.360Z,942.01
2023-03-08T01:55:07.073Z,942.01
2023-03-08T01:55:18.136Z,942.01
2023-03-08T01:55:29.110Z,942.01
2023-03-08T01:55:39.862Z,942.01
2023-03-08T01:55:50.902Z,942.00
2023-03-08T01:56:01.879Z,942.01
2023-03-08T01:56:12.647Z,942.01
2023-03-08T01:56:23.793Z,942.02
2023-03-08T01:56:34.736Z,942.01
2023-03-08T01:56:45.517Z,942.01
2023-03-08T01:56:56.564Z,942.00
2023-03-08T01:57:07.528Z,942.00
2023-03-08T01:57:18.376Z,941.99
2023-03-08T01:57:28.842Z,941.98
2023-03-08T01:57:39.820Z,941.98
2023-03-08T01:57:50.579Z,941.97
2023-03-08T01:58:01.624Z,941.95
2023-03-08T01:58:12.602Z,941.94
2023-03-08T01:58:23.374Z,941.95
2023-03-08T01:58:34.409Z,941.91
2023-03-08T01:58:45.374Z,941.92
2023-03-08T01:58:56.206Z,941.92
2023-03-08T01:59:06.692Z,941.90
2023-03-08T01:59:17.656Z,941.89
2023-03-08T01:59:28.524Z,941.89
2023-03-08T01:59:39.051Z,941.89
2023-03-08T01:59:50.015Z,941.89
2023-03-08T02:00:00.782Z,941.89
2023-03-08T02:00:11.830Z,941.87
2023-03-08T02:00:22.830Z,941.85
2023-03-08T02:00:33.601Z,941.86
2023-03-08T02:00:44.691Z,941.86
2023-03-08T02:00:55.681Z,941.87
2023-03-08T02:01:06.424Z,941.86
2023-03-08T02:01:17.513Z,941.84
2023-03-08T02:01:28.682Z,941.82
2023-03-08T02:01:39.398Z,941.84
2023-03-08T02:01:50.455Z,941.86
2023-03-08T02:02:01.431Z,941.85
2023-03-08T02:02:12.186Z,941.85
2023-03-08T02:02:23.288Z,941.84
2023-03-08T02:02:34.258Z,941.84
2023-03-08T02:02:45.033Z,941.83
2023-03-08T02:02:56.059Z,941.82
2023-03-08T02:03:07.030Z,941.82
2023-03-08T02:03:17.804Z,941.82
2023-03-08T02:03:28.862Z,941.81
2023-03-08T02:03:39.817Z,941.82
2023-03-08T02:03:50.578Z,941.80
2023-03-08T02:04:01.758Z,941.79
2023-03-08T02:04:12.659Z,941.78
2023-03-08T02:04:23.436Z,941.79
2023-03-08T02:04:34.483Z,941.80
2023-03-08T02:04:45.454Z,941.81
2023-03-08T02:04:56.226Z,941.81
2023-03-08T02:05:07.267Z,941.81
2023-03-08T02:05:18.264Z,941.81
2023-03-08T02:05:29.010Z,941.81
2023-03-08T02:05:40.056Z,941.82
2023-03-08T02:05:51.030Z,941.81
2023-03-08T02:06:01.793Z,941.80
2023-03-08T02:06:12.844Z,941.79
2023-03-08T02:06:23.841Z,941.80
2023-03-08T02:06:34.593Z,941.79
2023-03-08T02:06:45.653Z,941.78
2023-03-08T02:06:56.614Z,941.78
2023-03-08T02:07:07.396Z,941.79
2023-03-08T02:07:18.443Z,941.78
2023-03-08T02:07:29.413Z,941.78
2023-03-08T02:07:40.238Z,941.78
2023-03-08T02:07:51.228Z,941.78
2023-03-08T02:08:02.229Z,941.79
2023-03-08T02:08:12.966Z,941.81
2023-03-08T02:08:24.016Z,941.79
2023-03-08T02:08:34.986Z,941.79
2023-03-08T02:08:45.755Z,941.79
2023-03-08T02:08:56.800Z,941.78
2023-03-08T02:09:07.818Z,941.77
2023-03-08T02:09:18.546Z,941.78
2023-03-08T02:09:29.592Z,941.78
2023-03-08T02:09:40.589Z,941.77
2023-03-08T02:09:51.383Z,941.76
2023-03-08T02:10:02.412Z,941.77
2023-03-08T02:10:13.383Z,941.77
2023-03-08T02:10:24.166Z,941.78
2023-03-08T02:10:35.216Z,941.77
2023-03-08T02:10:46.223Z,941.75
2023-03-08T02:10:56.982Z,941.74
2023-03-08T02:11:08.026Z,941.75
2023-03-08T02:11:19.019Z,941.75
2023-03-08T02:11:29.803Z,941.75
2023-03-08T02:11:40.845Z,941.75
2023-03-08T02:11:51.820Z,941.75
2023-03-08T02:12:02.690Z,941.75
2023-03-08T02:12:13.149Z,941.76
2023-03-08T02:12:24.110Z,941.76
2023-03-08T02:12:34.871Z,941.76
2023-03-08T02:12:45.916Z,941.76
2023-03-08T02:12:56.891Z,941.74
2023-03-08T02:13:07.668Z,941.74
2023-03-08T02:13:18.712Z,941.75
2023-03-08T02:13:29.723Z,941.75
2023-03-08T02:13:40.471Z,941.75
2023-03-08T02:13:51.518Z,941.75
2023-03-08T02:14:02.499Z,941.75
2023-03-08T02:14:13.295Z,941.74
2023-03-08T02:14:24.316Z,941.75
2023-03-08T02:14:35.359Z,941.74
2023-03-08T02:14:46.122Z,941.74
2023-03-08T02:14:57.163Z,941.75
2023-03-08T02:15:08.138Z,941.73
2023-03-08T02:15:18.903Z,941.73
2023-03-08T02:15:29.957Z,941.72
2023-03-08T02:15:40.932Z,941.72
2023-03-08T02:15:51.730Z,941.71
2023-03-08T02:16:02.827Z,941.71
2023-03-08T02:16:13.735Z,941.71